Time;durP1;ratioP1;P1;durP2;ratioP2;P2;SDS_P1;SDS_P2;PMS_P1;PMS_P2;Temp;Humidity;BMP_temperature;BMP_pressure;BME280_temperature;BME280_humidity;BME280_pressure;Samples;Min_cycle;Max_cycle;Signal;HPM_P1;HPM_P2
2023/03/19 00:02:11;;;;;;;54.67;23.52;;;;;;;;;;12813865;19;20550;-68
2023/03/19 00:07:01;;;;;;;50.13;22.75;;;;;;;;;;12820299;19;20414;-68
2023/03/19 00:17:01;;;;;;;63.65;27.58;;;;;;;;;;12818818;19;20689;-67
2023/03/19 00:22:01;;;;;;;61.50;26.90;;;;;;;;;;12820573;19;20433;-67
2023/03/19 00:27:02;;;;;;;65.78;25.33;;;;;;;;;;12819988;19;20510;-67
2023/03/19 00:32:19;;;;;;;79.80;30.88;;;;;;;;;;12816326;19;20409;-67
2023/03/19 00:37:02;;;;;;;53.70;22.52;;;;;;;;;;12819598;19;20440;-68
2023/03/19 00:42:40;;;;;;;60.25;24.40;;;;;;;;;;12821028;19;20365;-68
2023/03/19 00:48:11;;;;;;;59.80;24.95;;;;;;;;;;12715793;19;2005610;-66
2023/03/19 00:53:04;;;;;;;51.75;23.83;;;;;;;;;;12810974;19;20315;-67
2023/03/19 00:58:01;;;;;;;45.28;21.35;;;;;;;;;;12812600;19;20480;-67
2023/03/19 01:02:46;;;;;;;53.30;22.00;;;;;;;;;;12803588;19;20015;-67
2023/03/19 01:07:23;;;;;;;73.72;26.00;;;;;;;;;;12804349;19;20375;-68
2023/03/19 01:11:58;;;;;;;92.82;30.85;;;;;;;;;;12805292;19;20385;-67
2023/03/19 01:16:37;;;;;;;71.82;26.65;;;;;;;;;;12803261;19;20314;-67
2023/03/19 01:21:36;;;;;;;48.58;20.30;;;;;;;;;;12810281;19;20303;-67
2023/03/19 01:26:26;;;;;;;59.97;23.45;;;;;;;;;;12810965;19;20367;-67
2023/03/19 01:31:05;;;;;;;58.28;24.15;;;;;;;;;;12812550;19;20366;-67
2023/03/19 01:36:03;;;;;;;58.25;23.52;;;;;;;;;;12810555;19;20010;-67
2023/03/19 01:41:05;;;;;;;48.72;19.30;;;;;;;;;;12807244;19;20319;-68
2023/03/19 01:46:21;;;;;;;46.55;21.83;;;;;;;;;;12801941;19;20303;-67
2023/03/19 01:57:41;;;;;;;66.40;26.65;;;;;;;;;;12707404;19;2004570;-68
2023/03/19 02:03:08;;;;;;;63.95;25.65;;;;;;;;;;12806956;19;20312;-67
2023/03/19 02:07:35;;;;;;;49.75;19.95;;;;;;;;;;12820766;19;20523;-69
2023/03/19 02:24:12;;;;;;;41.45;18.30;;;;;;;;;;12825612;19;20310;-67
2023/03/19 02:34:59;;;;;;;50.85;21.90;;;;;;;;;;12817184;19;20489;-67
2023/03/19 02:40:12;;;;;;;84.00;28.58;;;;;;;;;;12817027;19;20430;-68
2023/03/19 02:51:12;;;;;;;41.17;17.83;;;;;;;;;;12710585;19;2005057;-67
2023/03/19 02:56:19;;;;;;;52.70;21.25;;;;;;;;;;12814848;19;20438;-67
2023/03/19 03:00:58;;;;;;;39.72;18.20;;;;;;;;;;12816489;19;20431;-68
2023/03/19 03:06:02;;;;;;;39.35;16.33;;;;;;;;;;12823189;19;20422;-68
2023/03/19 03:11:28;;;;;;;42.17;16.65;;;;;;;;;;12815388;19;20476;-68
2023/03/19 03:15:59;;;;;;;40.63;16.90;;;;;;;;;;12816223;19;20433;-68
2023/03/19 03:27:08;;;;;;;40.53;16.50;;;;;;;;;;12815123;19;20308;-68
2023/03/19 03:32:01;;;;;;;36.83;16.05;;;;;;;;;;12823878;19;20039;-67
2023/03/19 03:36:37;;;;;;;47.40;17.55;;;;;;;;;;12823750;19;20417;-68
2023/03/19 03:42:00;;;;;;;34.42;15.48;;;;;;;;;;12824439;19;20369;-68
2023/03/19 03:47:11;;;;;;;31.20;13.93;;;;;;;;;;12823664;19;20358;-68
2023/03/19 03:51:57;;;;;;;38.40;16.67;;;;;;;;;;12820533;19;20379;-68
2023/03/19 03:56:27;;;;;;;34.60;15.50;;;;;;;;;;12822112;19;20424;-68
2023/03/19 04:01:33;;;;;;;33.33;14.40;;;;;;;;;;12820109;19;20014;-68
2023/03/19 04:11:23;;;;;;;29.95;13.93;;;;;;;;;;12814360;19;20592;-68
2023/03/19 04:16:15;;;;;;;31.50;13.38;;;;;;;;;;12814270;19;20028;-68
2023/03/19 04:21:28;;;;;;;33.65;13.63;;;;;;;;;;12810918;19;20498;-68
2023/03/19 04:26:36;;;;;;;33.80;13.77;;;;;;;;;;12808822;19;20354;-68
2023/03/19 04:37:39;;;;;;;31.63;13.65;;;;;;;;;;12708558;19;2004666;-68
2023/03/19 04:42:32;;;;;;;28.60;12.57;;;;;;;;;;12810022;19;20315;-69
2023/03/19 04:47:21;;;;;;;25.40;12.02;;;;;;;;;;12813318;19;20478;-68
2023/03/19 04:51:53;;;;;;;30.70;13.05;;;;;;;;;;12810226;19;20502;-68
2023/03/19 04:57:24;;;;;;;45.40;23.83;;;;;;;;;;12809138;19;20328;-68
2023/03/19 05:02:18;;;;;;;31.20;17.08;;;;;;;;;;12813293;19;20381;-68
2023/03/19 05:07:25;;;;;;;31.73;15.00;;;;;;;;;;12817537;19;20434;-68
2023/03/19 05:12:32;;;;;;;33.67;13.95;;;;;;;;;;12814539;19;20307;-68
2023/03/19 05:17:34;;;;;;;;;;;;;;;;;;12820082;19;20445;-69
2023/03/19 05:22:34;;;;;;;31.67;13.23;;;;;;;;;;12818444;19;20216;-68
2023/03/19 05:33:14;;;;;;;29.23;13.20;;;;;;;;;;12815665;19;20022;-69
2023/03/19 05:38:07;;;;;;;30.90;14.82;;;;;;;;;;12814886;19;20304;-69
2023/03/19 05:42:39;;;;;;;41.28;14.90;;;;;;;;;;12829386;19;20379;-68
2023/03/19 05:53:23;;;;;;;44.38;20.98;;;;;;;;;;12821905;19;20440;-68
2023/03/19 05:58:04;;;;;;;30.00;13.75;;;;;;;;;;12823601;19;20456;-69
2023/03/19 06:04:04;;;;;;;24.17;11.25;;;;;;;;;;12826692;19;20015;-69
2023/03/19 06:09:32;;;;;;;22.65;10.00;;;;;;;;;;12717161;19;2005982;-68
2023/03/19 06:14:28;;;;;;;23.95;12.10;;;;;;;;;;12817803;19;20027;-69
2023/03/19 06:25:38;;;;;;;25.55;13.48;;;;;;;;;;12717269;19;2004769;-69
2023/03/19 06:31:02;;;;;;;28.52;13.25;;;;;;;;;;12817904;19;20458;-68
2023/03/19 06:35:58;;;;;;;24.55;12.40;;;;;;;;;;12818362;19;20086;-68
2023/03/19 06:41:05;;;;;;;22.08;10.10;;;;;;;;;;12818970;19;20446;-69
2023/03/19 06:46:08;;;;;;;20.40;10.02;;;;;;;;;;12816421;19;20427;-69
2023/03/19 06:51:07;;;;;;;23.05;11.63;;;;;;;;;;12816705;19;20014;-68
2023/03/19 06:55:29;;;;;;;24.13;11.45;;;;;;;;;;12825277;19;20025;-68
2023/03/19 07:01:30;;;;;;;26.02;14.40;;;;;;;;;;12822990;19;20342;-69
2023/03/19 07:06:06;;;;;;;19.08;9.43;;;;;;;;;;12824975;19;20017;-69
2023/03/19 07:11:05;;;;;;;20.73;10.40;;;;;;;;;;12818164;19;20311;-69
2023/03/19 07:21:56;;;;;;;7.63;4.45;;;;;;;;;;12815521;19;20504;-69
2023/03/19 07:26:28;;;;;;;5.95;3.50;;;;;;;;;;12814772;19;20015;-69
2023/03/19 07:37:21;;;;;;;9.60;3.95;;;;;;;;;;12713018;19;2005217;-70
2023/03/19 07:42:16;;;;;;;7.50;4.37;;;;;;;;;;12813269;19;20483;-70
2023/03/19 08:09:58;;;;;;;10.35;5.32;;;;;;;;;;12820469;19;20313;-70
2023/03/19 08:15:00;;;;;;;9.57;4.80;;;;;;;;;;12814512;19;20380;-68
2023/03/19 08:31:14;;;;;;;5.22;3.58;;;;;;;;;;12811466;19;20423;-69
2023/03/19 08:36:18;;;;;;;7.03;3.33;;;;;;;;;;12811292;19;20510;-69
2023/03/19 08:47:02;;;;;;;4.55;2.35;;;;;;;;;;12712813;19;2004937;-69
2023/03/19 08:51:38;;;;;;;5.82;3.08;;;;;;;;;;12810755;19;20296;-69
2023/03/19 09:01:20;;;;;;;4.77;2.43;;;;;;;;;;12810394;19;20354;-69
2023/03/19 09:10:57;;;;;;;4.60;2.90;;;;;;;;;;12810629;19;20474;-68
2023/03/19 09:22:13;;;;;;;4.00;2.42;;;;;;;;;;12820683;19;20313;-70
2023/03/19 09:26:40;;;;;;;4.10;2.42;;;;;;;;;;12823728;19;20035;-69
2023/03/19 09:43:05;;;;;;;5.85;2.78;;;;;;;;;;12820555;19;20434;-70
2023/03/19 09:48:33;;;;;;;4.63;2.78;;;;;;;;;;12823658;19;20079;-69
2023/03/19 09:54:31;;;;;;;6.63;2.90;;;;;;;;;;12817233;19;20315;-69
2023/03/19 09:59:57;;;;;;;3.95;2.70;;;;;;;;;;12817831;19;20516;-69
2023/03/19 10:05:30;;;;;;;16.77;4.23;;;;;;;;;;12825665;19;20314;-69
2023/03/19 10:11:19;;;;;;;8.30;6.63;;;;;;;;;;12823432;19;20734;-69
2023/03/19 10:16:26;;;;;;;13.98;9.30;;;;;;;;;;12819175;19;20376;-68
2023/03/19 10:22:03;;;;;;;5.18;3.83;;;;;;;;;;12826505;19;20339;-68
2023/03/19 10:27:21;;;;;;;6.13;4.47;;;;;;;;;;12714758;19;2004874;-69
2023/03/19 10:32:41;;;;;;;4.07;3.33;;;;;;;;;;12814453;19;20318;-69
2023/03/19 10:37:13;;;;;;;4.55;3.55;;;;;;;;;;12818014;19;20477;-70
2023/03/19 10:42:23;;;;;;;4.03;2.92;;;;;;;;;;12819414;19;20409;-68
2023/03/19 10:47:36;;;;;;;4.25;2.78;;;;;;;;;;12821040;19;20020;-68
2023/03/19 10:52:29;;;;;;;5.57;3.47;;;;;;;;;;12824366;19;20444;-69
2023/03/19 10:57:25;;;;;;;5.68;3.58;;;;;;;;;;12821324;19;20444;-69
2023/03/19 11:02:30;;;;;;;3.92;2.53;;;;;;;;;;12822215;19;20291;-70
2023/03/19 11:07:34;;;;;;;4.32;2.65;;;;;;;;;;12822785;19;20306;-68
2023/03/19 11:13:05;;;;;;;5.80;3.20;;;;;;;;;;12825563;19;20452;-68
2023/03/19 11:23:40;;;;;;;5.38;3.20;;;;;;;;;;12818373;19;20486;-68
2023/03/19 11:29:04;;;;;;;8.85;5.15;;;;;;;;;;12816226;19;20295;-68
2023/03/19 11:34:22;;;;;;;9.18;4.43;;;;;;;;;;12814310;19;20006;-68
2023/03/19 11:39:22;;;;;;;4.95;3.15;;;;;;;;;;12814615;19;20307;-69
2023/03/19 11:50:21;;;;;;;9.85;2.95;;;;;;;;;;12713523;19;2004868;-69
2023/03/19 11:55:57;;;;;;;6.63;3.20;;;;;;;;;;12813557;19;20292;-68
2023/03/19 12:18:09;;;;;;;4.80;2.63;;;;;;;;;;12810713;19;20029;-69
2023/03/19 12:29:08;;;;;;;4.35;2.55;;;;;;;;;;12712661;19;2005576;-69
2023/03/19 12:34:56;;;;;;;4.35;2.80;;;;;;;;;;12812566;19;20323;-68
2023/03/19 12:39:32;;;;;;;3.83;2.38;;;;;;;;;;12812508;19;20469;-68
2023/03/19 12:45:03;;;;;;;3.70;2.40;;;;;;;;;;12812628;19;20412;-70
2023/03/19 12:50:30;;;;;;;6.90;2.60;;;;;;;;;;12706941;19;2005295;-69
2023/03/19 12:55:36;;;;;;;;;;;;;;;;;;12811572;19;20379;-69
2023/03/19 13:01:26;;;;;;;4.15;2.28;;;;;;;;;;12810562;19;20374;-69
2023/03/19 13:06:46;;;;;;;3.78;2.15;;;;;;;;;;12809026;19;20537;-69
2023/03/19 13:12:20;;;;;;;3.22;2.15;;;;;;;;;;12809752;19;20095;-69
2023/03/19 13:23:05;;;;;;;4.88;2.30;;;;;;;;;;12709847;19;2004653;-70
2023/03/19 13:28:58;;;;;;;4.88;2.95;;;;;;;;;;12808966;19;20323;-68
2023/03/19 13:33:30;;;;;;;5.40;3.05;;;;;;;;;;12810124;19;20492;-68
2023/03/19 13:38:46;;;;;;;6.25;3.92;;;;;;;;;;12818072;19;20468;-68
2023/03/19 13:49:24;;;;;;;5.97;3.17;;;;;;;;;;12816159;19;20433;-68
2023/03/19 13:54:17;;;;;;;4.85;3.22;;;;;;;;;;12816472;19;20539;-68
2023/03/19 13:59:40;;;;;;;4.68;2.90;;;;;;;;;;12808030;19;20422;-67
2023/03/19 14:05:00;;;;;;;4.97;3.20;;;;;;;;;;12820301;19;20295;-68
2023/03/19 14:09:38;;;;;;;6.43;3.45;;;;;;;;;;12818827;19;20521;-68
2023/03/19 14:14:23;;;;;;;4.93;3.33;;;;;;;;;;12819085;19;20026;-68
2023/03/19 14:31:41;;;;;;;6.65;2.63;;;;;;;;;;12818882;19;20361;-69
2023/03/19 14:36:21;;;;;;;10.27;4.68;;;;;;;;;;12819363;19;20394;-68
2023/03/19 14:41:13;;;;;;;8.13;4.15;;;;;;;;;;12821281;19;20517;-67
2023/03/19 14:52:21;;;;;;;6.53;3.90;;;;;;;;;;12816575;19;20329;-69
2023/03/19 14:57:57;;;;;;;6.72;4.00;;;;;;;;;;12818750;19;20430;-68
2023/03/19 15:03:09;;;;;;;5.60;3.40;;;;;;;;;;12814360;19;20346;-68
2023/03/19 15:09:01;;;;;;;5.63;3.15;;;;;;;;;;12815198;19;20007;-68
2023/03/19 15:13:57;;;;;;;5.85;3.53;;;;;;;;;;12817195;19;20655;-67
2023/03/19 15:24:34;;;;;;;5.85;3.40;;;;;;;;;;12815194;19;20029;-68
2023/03/19 15:34:31;;;;;;;10.88;4.88;;;;;;;;;;12822038;19;20324;-68
2023/03/19 15:39:13;;;;;;;11.27;4.82;;;;;;;;;;12823713;19;20471;-68
2023/03/19 15:49:27;;;;;;;4.72;2.92;;;;;;;;;;12820990;19;20020;-67
2023/03/19 16:06:03;;;;;;;6.82;3.53;;;;;;;;;;12821527;19;20487;-69
2023/03/19 16:17:16;;;;;;;10.25;5.53;;;;;;;;;;12820409;19;20330;-68
2023/03/19 16:22:24;;;;;;;6.25;3.60;;;;;;;;;;12816809;19;20361;-68
2023/03/19 16:27:11;;;;;;;11.82;5.00;;;;;;;;;;12817735;19;20468;-68
2023/03/19 16:38:16;;;;;;;31.77;10.85;;;;;;;;;;12817419;19;20357;-67
2023/03/19 16:43:58;;;;;;;57.85;21.75;;;;;;;;;;12818463;19;20006;-68
2023/03/19 16:48:23;;;;;;;62.17;23.13;;;;;;;;;;12820848;19;20503;-68
2023/03/19 16:54:02;;;;;;;77.97;24.70;;;;;;;;;;12820928;19;20309;-68
2023/03/19 16:59:07;;;;;;;45.75;14.02;;;;;;;;;;12818130;19;20156;-68
2023/03/19 17:03:38;;;;;;;78.30;19.92;;;;;;;;;;12817234;19;20302;-69
2023/03/19 17:09:09;;;;;;;77.35;20.75;;;;;;;;;;12819267;19;20382;-70
2023/03/19 17:20:04;;;;;;;60.47;17.70;;;;;;;;;;12817601;19;20806;-69
2023/03/19 17:31:04;;;;;;;66.30;22.25;;;;;;;;;;12809203;19;20514;-69
2023/03/19 17:36:00;;;;;;;54.08;20.77;;;;;;;;;;12816591;19;20294;-69
2023/03/19 17:46:37;;;;;;;61.65;29.40;;;;;;;;;;12822289;19;20003;-69
2023/03/19 17:51:17;;;;;;;83.40;36.58;;;;;;;;;;12824729;19;20339;-69
2023/03/19 18:03:14;;;;;;;49.28;21.55;;;;;;;;;;12724780;19;2005253;-69
2023/03/19 18:08:26;;;;;;;58.70;21.73;;;;;;;;;;12813776;19;20418;-70
2023/03/19 18:13:08;;;;;;;152.23;50.20;;;;;;;;;;12819885;19;20475;-71
2023/03/19 18:23:33;;;;;;;85.97;34.63;;;;;;;;;;12821390;19;20342;-70
2023/03/19 18:28:11;;;;;;;190.02;80.40;;;;;;;;;;12816281;19;20325;-69
2023/03/19 18:33:28;;;;;;;227.13;96.22;;;;;;;;;;12820294;19;20465;-69
2023/03/19 18:55:58;;;;;;;46.17;23.45;;;;;;;;;;12705818;19;3036873;-69
2023/03/19 19:01:07;;;;;;;;;;;;;;;;;;12865649;19;20309;-69
2023/03/19 19:06:35;;;;;;;49.58;21.55;;;;;;;;;;12858148;19;20338;-68
2023/03/19 19:11:35;;;;;;;45.08;22.33;;;;;;;;;;12853726;19;20479;-68
2023/03/19 19:16:04;;;;;;;60.15;27.27;;;;;;;;;;12853487;19;20125;-68
2023/03/19 19:20:42;;;;;;;54.88;27.75;;;;;;;;;;12847017;19;20370;-68
2023/03/19 19:26:05;;;;;;;62.58;30.00;;;;;;;;;;12844712;19;20309;-68
2023/03/19 19:31:20;;;;;;;70.30;29.98;;;;;;;;;;12845949;19;20351;-68
2023/03/19 19:36:09;;;;;;;68.90;28.75;;;;;;;;;;12850063;19;20799;-68
2023/03/19 19:41:00;;;;;;;62.78;28.30;;;;;;;;;;12854496;19;20463;-68
2023/03/19 19:52:24;;;;;;;79.07;31.13;;;;;;;;;;12861742;19;20436;-68
2023/03/19 19:57:27;;;;;;;60.45;28.30;;;;;;;;;;12856347;19;20516;-68
2023/03/19 20:02:28;;;;;;;52.90;25.83;;;;;;;;;;12854849;19;20439;-68
2023/03/19 20:14:05;;;;;;;108.00;33.13;;;;;;;;;;12796731;19;20322;-68
2023/03/19 20:19:34;;;;;;;59.45;24.77;;;;;;;;;;12796248;19;20566;-68
2023/03/19 20:24:36;;;;;;;52.08;23.73;;;;;;;;;;12803212;19;20440;-68
2023/03/19 20:29:14;;;;;;;63.97;25.60;;;;;;;;;;12803735;19;20014;-68
2023/03/19 20:34:29;;;;;;;69.05;26.55;;;;;;;;;;12807412;19;20127;-68
2023/03/19 20:40:00;;;;;;;83.80;30.17;;;;;;;;;;12798629;19;20430;-68
2023/03/19 20:45:37;;;;;;;77.75;28.92;;;;;;;;;;12798479;19;20118;-69
2023/03/19 20:51:00;;;;;;;91.65;33.25;;;;;;;;;;12804412;19;20429;-68
2023/03/19 20:56:33;;;;;;;72.70;27.67;;;;;;;;;;12802008;19;20329;-68
2023/03/19 21:01:40;;;;;;;75.30;29.75;;;;;;;;;;12794127;19;20757;-68
2023/03/19 21:06:39;;;;;;;87.63;33.80;;;;;;;;;;12793472;19;20437;-69
2023/03/19 21:11:59;;;;;;;74.97;30.27;;;;;;;;;;12792304;19;20331;-68
2023/03/19 21:22:57;;;;;;;80.95;31.17;;;;;;;;;;12799320;19;20736;-68
2023/03/19 21:28:09;;;;;;;66.13;25.67;;;;;;;;;;12796471;19;20299;-67
2023/03/19 21:33:05;;;;;;;73.97;27.08;;;;;;;;;;12799951;19;20600;-68
2023/03/19 21:38:04;;;;;;;70.78;25.88;;;;;;;;;;12802619;19;20372;-68
2023/03/19 21:43:37;;;;;;;65.55;25.70;;;;;;;;;;12806928;19;20491;-68
2023/03/19 21:49:00;;;;;;;75.38;28.02;;;;;;;;;;12792596;19;20614;-69
2023/03/19 21:59:30;;;;;;;68.20;26.20;;;;;;;;;;12797839;19;20322;-69
2023/03/19 22:09:51;;;;;;;86.57;29.65;;;;;;;;;;12804419;19;20454;-69
2023/03/19 22:14:33;;;;;;;67.00;26.23;;;;;;;;;;12798539;19;20611;-69
2023/03/19 22:19:40;;;;;;;61.53;24.40;;;;;;;;;;12807198;19;20066;-68
2023/03/19 22:24:23;;;;;;;66.32;26.40;;;;;;;;;;12812026;19;20033;-69
2023/03/19 22:29:29;;;;;;;74.72;28.80;;;;;;;;;;12811875;19;20321;-69
2023/03/19 22:34:22;;;;;;;88.65;37.00;;;;;;;;;;12813414;19;20458;-69
2023/03/19 22:38:58;;;;;;;78.07;30.58;;;;;;;;;;12812154;19;20497;-70
2023/03/19 22:49:41;;;;;;;73.53;29.52;;;;;;;;;;12810118;19;20325;-70
2023/03/19 22:54:59;;;;;;;71.85;27.48;;;;;;;;;;12811874;19;20317;-68
2023/03/19 23:00:34;;;;;;;44.55;21.17;;;;;;;;;;12814991;19;20326;-70
2023/03/19 23:06:17;;;;;;;50.28;21.85;;;;;;;;;;12818053;19;20429;-68
2023/03/19 23:11:17;;;;;;;62.40;23.90;;;;;;;;;;12818577;19;20504;-69
2023/03/19 23:16:02;;;;;;;56.15;25.27;;;;;;;;;;12818595;19;20349;-69
2023/03/19 23:20:49;;;;;;;50.72;24.65;;;;;;;;;;12817276;19;20378;-70
2023/03/19 23:25:57;;;;;;;57.60;22.83;;;;;;;;;;12812236;19;20414;-69
2023/03/19 23:30:40;;;;;;;46.90;21.25;;;;;;;;;;12809798;19;20101;-69
2023/03/19 23:36:06;;;;;;;44.85;20.80;;;;;;;;;;12810084;19;20444;-70
2023/03/19 23:41:24;;;;;;;42.05;18.77;;;;;;;;;;12816670;19;20655;-69
2023/03/19 23:46:14;;;;;;;44.13;18.95;;;;;;;;;;12825830;19;20363;-70
2023/03/19 23:50:57;;;;;;;37.90;19.10;;;;;;;;;;12829489;19;20298;-69
2023/03/19 23:55:38;;;;;;;43.08;19.80;;;;;;;;;;12828000;19;20308;-70
